Aérodrome :
LOGIN :

S'inscrire | Disclaimer

   EN    FR    IT 

 










Légende :    VFR   VFR Marginal   IFR   IFR Intensif   IFR Très Intensif
Visi : 
Plafond : 
>= 8 km
>= 3000ft
5 à 8 km
1000 à 3000 ft
1500m à 5 km
500 à 1000 ft
800 à 1500m
200 à 500 ft
< 800m
< 200 ft
Symboles :   Orages  Brouillard  Fortes neiges  Fortes précipitations  Vent > 20 kt
SIGMETs :   Divers  Orages  Givrage  Turbulence  Onde Orograph.  Cendres Volcan.







- Altitude de l'aérodrome : 18 ft
- Code IATA : AJA
- Voir les cartes d'approche


LFKJ - Ajaccio

DERNIER METAR :
  • 212200Z AUTO 06003KT 9999 FEW014 24/20 Q1012 NOSIG

METARs EXPIRÉS :
  • 212130Z AUTO 00000KT 9999 SCT015 BKN024 25/21 Q1012 NOSIG
  • 212100Z AUTO 05002KT 9999 SCT015 SCT020 25/21 Q1011 NOSIG
  • 212030Z AUTO 12002KT 9999 FEW015 26/22 Q1011 NOSIG
  • 212000Z AUTO 22004KT CAVOK 26/22 Q1011 TEMPO BKN012
  • 211930Z AUTO VRB02KT CAVOK 26/21 Q1011 TEMPO BKN012

TAF TAF LFKJ
Valide du 21 à 21h jusqu'au 22 à 21h UTC


212000Z 2121/2221 04005KT CAVOK
TEMPO 2203/2206 BKN014
BECMG 2207/2209 CAVOK
BECMG 2210/2212 22012KT
BECMG 2219/2221 05006KT
ATIS : +33 4 95 23 59 85
Pas de NOTAMs connus pour ce terrain.



MET'MAP, la Météo Aéronautique d'un coup d'oeil ! - Copyright ORBIFLY Décembre 2007 - Disclaimer

ORBIFLY MET'MAP TEAM :

Programmation & Développement : Alexandra Zaïnal
Conception & Développement : Baudouin d'Aumeries
Co-Programmation & Développement : Marc-Olivier Méhu
Soutien technique & logistique : Manuel Goepfert

Contact : metmap@orbifly.com




SOURCES & CREDITS :

   NOAA